Latest Coastal Weather Observations for Cape Leeuwin

IDW60701

Issued at 10:03 am WST Wednesday 20 September 2017 (issued every 10 minutes, with the page automatically refreshed every 10 minutes)

About coastal observations | Map of coastal stations | Coastal observations for WA | Marine services | Other Formats
Station Details ID: 009518 Name: CAPE LEEUWIN Lat: -34.37 Lon: 115.14 Height: 13.0 m
Data from the previous 72 hours. | See also: Recent months at Cape Leeuwin
Date/Time
WST
Temp
°C
Wind Pressure Rain since
9am
mm
Weather Cloud Vis
km
Sea
Height
m
Swell
Dir  Spd
kts
Gust
kts
hPa Trend Height
m
Period
s
Dir
20/10:00am 17.2 WNW 15 17 1011.8 - 0.0 - - - - - - -
20/09:30am 17.1 WNW 16 19 1012.2 - 0.0 - - - - - - -
20/09:00am 16.6 WNW 16 19 1012.1 - 0.4 - - - - - - -
20/08:30am 16.3 WNW 17 20 1012.0 - 0.4 - - - - - - -
20/08:00am 16.1 WNW 17 20 1011.9 - 0.4 - - - - - - -
20/07:30am 15.6 WNW 15 17 1011.7 - 0.4 - - - - - - -
20/07:00am 15.3 W 19 25 1011.8 - 0.4 - - - - - - -
20/06:30am 15.1 WSW 21 25 1011.9 - 0.4 - - - - - - -
20/06:00am 14.9 WSW 16 19 1011.6 - 0.4 Recent precip. - - - - - -
20/05:30am 15.0 W 18 22 1011.3 - 0.4 - - - - - - -
20/05:00am 15.5 WSW 18 23 1011.2 - 0.2 - - - - - - -
20/04:30am 16.1 W 22 26 1011.1 - 0.2 - - - - - - -
20/04:00am 16.0 W 22 26 1011.0 - 0.2 - - - - - - -
20/03:30am 16.1 WNW 23 27 1011.0 - 0.2 - - - - - - -
20/03:00am 16.1 WNW 23 25 1010.9 - 0.2 - - - - - - -
20/02:30am 16.2 W 22 25 1010.9 - 0.2 - - - - - - -
20/02:00am 16.2 W 20 25 1011.1 - 0.2 - - - - - - -
20/01:30am 16.1 W 21 24 1011.3 - 0.2 - - - - - - -
20/01:00am 16.0 W 19 23 1011.5 - 0.2 - - - - - - -
20/12:30am 16.0 WNW 21 25 1011.9 - 0.2 - - - - - - -
20/12:00am 15.9 WNW 19 22 1012.1 - 0.2 - - - - - - -
 
Date/Time
WST
Temp
°C
Wind Pressure Rain since
9am
mm
Weather Cloud Vis
km
Sea
Height
m
Swell
Dir  Spd
kts
Gust
kts
hPa Trend Height
m
Period
s
Dir
19/11:30pm 16.0 W 20 22 1012.4 - 0.2 - - - - - - -
19/11:00pm 16.1 W 19 24 1012.8 - 0.2 - - - - - - -
19/10:30pm 16.1 W 22 27 1013.2 - 0.2 - - - - - - -
19/10:00pm 16.2 W 23 28 1013.5 - 0.2 - - - - - - -
19/09:30pm 16.2 W 22 27 1013.7 - 0.2 - - - - - - -
19/09:00pm 16.3 W 22 26 1013.7 - 0.2 - - - - - - -
19/08:30pm 16.5 W 22 26 1013.5 - 0.2 - - - - - - -
19/08:00pm 16.4 W 19 23 1013.3 - 0.2 - - - - - - -
19/07:30pm 16.4 W 19 23 1013.0 - 0.2 - - - - - - -
19/07:00pm 16.4 W 21 23 1013.0 - 0.2 - - - - - - -
19/06:30pm 16.4 W 21 24 1012.7 - 0.2 - - - - - - -
19/06:00pm 16.6 W 19 23 1012.6 - 0.2 - - - - - - -
19/05:30pm 17.0 WNW 21 25 1012.6 - 0.2 - - - - - - -
19/05:00pm 17.1 W 19 23 1012.7 - 0.2 - - - - - - -
19/04:30pm 17.5 WNW 20 24 1012.5 - 0.2 - - - - - - -
19/04:00pm 17.7 WNW 22 26 1012.5 - 0.2 - - - - - - -
19/03:30pm 17.8 W 24 27 1012.5 - 0.2 - - - - - - -
19/03:00pm 18.1 W 21 27 1012.7 - 0.2 - - - - - - -
19/02:30pm 17.6 W 23 26 1012.7 - 0.2 - - - - - - -
19/02:00pm 17.6 W 23 27 1012.7 - 0.2 - - - - - - -
19/01:30pm 17.8 W 22 25 1012.7 - 0.2 - - - - - - -
19/01:00pm 18.2 W 23 26 1012.8 - 0.2 - - - - - - -
19/12:30pm 18.2 W 23 27 1012.9 - 0.2 - - - - - - -
19/12:00pm 17.7 W 24 29 1013.0 - 0.2 - - - - - - -
19/11:30am 17.0 WNW 28 33 1013.1 - 0.2 - - - - - - -
19/11:00am 16.6 W 26 30 1013.2 - 0.2 - - - - - - -
19/10:41am 16.8 WNW 25 30 1013.2 - 0.0 - - - - - - -
19/10:30am 18.4 NW 25 29 1013.1 - 0.0 - - - - - - -
19/10:00am 18.5 NW 24 29 1013.2 - 0.0 - - - - - - -
19/09:30am 18.5 NW 22 27 1013.4 - 0.0 - - - - - - -
19/09:00am 18.1 NW 24 28 1013.7 - 0.2 - - - - - - -
19/08:30am 17.8 NW 25 28 1013.7 - 0.2 - - - - - - -
19/08:00am 17.9 NW 24 27 1013.7 - 0.2 - - - - - - -
19/07:30am 17.6 NW 24 28 1013.7 - 0.2 - - - - - - -
19/07:00am 17.5 NW 23 27 1013.7 - 0.2 - - - - - - -
19/06:30am 17.6 NW 22 27 1013.7 - 0.2 - - - - - - -
19/06:00am 17.7 NW 21 26 1013.7 - 0.2 - - - - - - -
19/05:30am 17.5 NW 21 25 1013.7 - 0.2 - - - - - - -
19/05:00am 17.4 NW 22 26 1013.6 - 0.2 - - - - - - -
19/04:30am 17.1 NW 22 27 1013.7 - 0.2 - - - - - - -
19/04:00am 17.3 NW 23 26 1013.6 - 0.2 - - - - - - -
19/03:30am 17.4 WNW 24 27 1013.9 - 0.2 - - - - - - -
19/03:00am 17.5 NW 23 26 1014.1 - 0.2 - - - - - - -
19/02:30am 17.5 NW 24 27 1014.3 - 0.2 - - - - - - -
19/02:00am 17.7 WNW 23 27 1014.7 - 0.2 - - - - - - -
19/01:30am 17.9 NW 21 24 1015.3 - 0.2 - - - - - - -
19/01:00am 17.9 NW 21 24 1015.6 - 0.2 - - - - - - -
19/12:30am 17.7 NW 23 27 1015.8 - 0.2 - - - - - - -
19/12:00am 17.8 NW 22 25 1015.9 - 0.2 - - - - - - -
 
Date/Time
WST
Temp
°C
Wind Pressure Rain since
9am
mm
Weather Cloud Vis
km
Sea
Height
m
Swell
Dir  Spd
kts
Gust
kts
hPa Trend Height
m
Period
s
Dir
18/11:30pm 17.8 NW 22 26 1016.2 - 0.2 - - - - - - -
18/11:00pm 17.7 NW 20 24 1016.7 - 0.2 - - - - - - -
18/10:30pm 17.6 NW 22 25 1017.1 - 0.2 - - - - - - -
18/10:00pm 17.5 NW 21 25 1017.7 - 0.2 - - - - - - -
18/09:30pm 17.5 NW 20 25 1017.9 - 0.2 - - - - - - -
18/09:00pm 17.2 NNW 14 18 1018.2 - 0.2 - - - - - - -
18/08:30pm 16.9 NNW 13 16 1018.3 - 0.2 - - - - - - -
18/08:00pm 16.9 NNW 16 19 1018.2 - 0.2 - - - - - - -
18/07:30pm 16.9 NNW 19 23 1018.0 - 0.2 - - - - - - -
18/07:00pm 16.8 NW 18 22 1018.2 - 0.2 - - - - - - -
18/06:30pm 16.9 NNW 19 23 1018.0 - 0.2 - - - - - - -
18/06:00pm 17.2 NNW 18 21 1017.9 - 0.2 - - - - - - -
18/05:30pm 17.9 NW 18 20 1017.9 - 0.2 - - - - - - -
18/05:00pm 18.3 NW 19 22 1018.0 - 0.2 - - - - - - -
18/04:30pm 18.8 NW 18 21 1018.2 - 0.2 - - - - - - -
18/04:00pm 18.9 NW 18 21 1018.3 - 0.2 - - - - - - -
18/03:30pm 19.0 NW 20 23 1018.3 - 0.2 - - - - - - -
18/03:00pm 18.9 NW 23 26 1018.5 - 0.2 - - - - - - -
18/02:30pm 19.1 NW 21 24 1018.5 - 0.2 - - - - - - -
18/02:00pm 19.4 NW 18 21 1018.9 - 0.2 - - - - - - -
18/01:30pm 19.0 NW 20 23 1019.1 - 0.2 - - - - - - -
18/01:00pm 18.8 NW 18 22 1020.5 - 0.2 - - - - - - -
18/12:30pm 19.0 NW 15 18 1020.9 - 0.2 - - - - - - -
18/12:00pm 18.9 NW 13 16 1021.7 - 0.2 - - - - - - -
18/11:30am 18.3 NNW 12 15 1022.3 - 0.2 - - - - - - -
18/11:00am 18.1 NW 12 14 1022.7 - 0.2 - - - - - - -
18/10:30am 17.2 NW 7 9 1023.2 - 0.0 - - - - - - -
18/10:00am 17.1 NNW 7 10 1023.4 - 0.0 - - - - - - -
18/09:30am 16.3 N 6 9 1023.5 - 0.0 - - - - - - -
18/09:00am 15.7 NW 9 11 1023.6 - 0.0 - - - - - - -
18/08:30am 16.1 N 6 10 1023.8 - 0.0 - - - - - - -
18/08:00am 14.7 N 7 10 1023.8 - 0.0 - - - - - - -
18/07:30am 13.8 N 8 11 1023.5 - 0.0 - - - - - - -
18/07:00am 13.4 N 7 11 1023.4 - 0.0 - - - - - - -
18/06:30am 12.9 NNE 9 11 1023.1 - 0.0 - - - - - - -
18/06:00am 13.2 NNE 7 10 1023.0 - 0.0 - - - - - - -
18/05:30am 13.5 NNE 8 9 1022.8 - 0.0 - - - - - - -
18/05:00am 14.1 NE 5 6 1022.9 - 0.0 - - - - - - -
18/04:30am 14.2 NE 4 6 1023.1 - 0.0 - - - - - - -
18/04:00am 13.9 NE 5 6 1023.0 - 0.0 - - - - - - -
18/03:30am 14.5 CALM 0 0 1023.1 - 0.0 - - - - - - -
18/03:00am 14.2 SW 3 5 1023.1 - 0.0 - - - - - - -
18/02:30am 14.6 SW 6 8 1023.2 - 0.0 - - - - - - -
18/02:00am 14.3 SW 5 7 1023.4 - 0.0 - - - - - - -
18/01:30am 14.5 SSW 8 9 1023.6 - 0.0 - - - - - - -
18/01:00am 14.6 SSW 7 11 1023.8 - 0.0 - - - - - - -
18/12:30am 15.0 WSW 9 12 1024.0 - 0.0 - - - - - - -
18/12:00am 14.9 SW 11 15 1024.0 - 0.0 - - - - - - -
 
Date/Time
WST
Temp
°C
Wind Pressure Rain since
9am
mm
Weather Cloud Vis
km
Sea
Height
m
Swell
Dir  Spd
kts
Gust
kts
hPa Trend Height
m
Period
s
Dir
17/11:30pm 14.8 SW 9 13 1024.1 - 0.0 - - - - - - -
17/11:00pm 15.6 WSW 13 16 1024.2 - 0.0 - - - - - - -
17/10:30pm 16.2 WSW 11 16 1024.2 - 0.0 - - - - - - -
17/10:00pm 16.2 SW 13 15 1024.4 - 0.0 - - - - - - -
17/09:30pm 16.2 WSW 15 18 1024.4 - 0.0 - - - - - - -
17/09:00pm 16.1 WSW 16 19 1024.3 - 0.0 - - - - - - -
17/08:30pm 16.4 WSW 17 20 1024.5 - 0.0 - - - - - - -
17/08:00pm 16.5 WSW 17 20 1024.3 - 0.0 - - - - - - -
17/07:30pm 16.4 W 17 20 1024.0 - 0.0 - - - - - - -
17/07:00pm 16.2 W 17 19 1023.7 - 0.0 - - - - - - -
17/06:30pm 16.4 W 16 19 1023.3 - 0.0 - - - - - - -
17/06:00pm 16.4 WSW 20 24 1023.4 - 0.0 - - - - - - -
17/05:30pm 16.5 W 20 24 1023.3 - 0.0 - - - - - - -
17/05:00pm 16.8 W 22 25 1022.8 - 0.0 - - - - - - -
17/04:30pm 17.2 W 22 25 1022.3 - 0.0 - - - - - - -
17/04:00pm 17.5 W 21 25 1021.9 - 0.0 - - - - - - -
17/03:30pm 17.6 WNW 22 26 1021.6 - 0.0 - - - - - - -
17/03:00pm 17.7 WNW 22 26 1021.4 - 0.0 - - - - - - -
17/02:30pm 17.7 WNW 23 29 1021.1 - 0.0 - - - - - - -
17/02:00pm 17.6 WNW 23 27 1021.2 - 0.0 - - - - - - -
17/01:30pm 17.6 WNW 23 27 1021.3 - 0.0 - - - - - - -
17/01:00pm 17.5 WNW 23 27 1021.2 - 0.0 - - - - - - -
17/12:30pm 17.3 WNW 23 26 1021.4 - 0.0 - - - - - - -
17/12:00pm 17.0 NW 20 24 1021.3 - 0.0 - - - - - - -
17/11:30am 17.2 NW 20 24 1021.6 - 0.0 - - - - - - -
17/11:00am 16.8 WNW 19 21 1021.8 - 0.0 - - - - - - -
17/10:30am 16.8 WNW 18 21 1021.7 - 0.0 - - - - - - -

Other Formats:

Comma delimited format used in spreadsheet applications
http://www.bom.gov.au/fwo/IDW60701/IDW60701.94601.axf

JavaScript Object Notation format (JSON) in row-major order
http://www.bom.gov.au/fwo/IDW60701/IDW60701.94601.json